WetterOnline ( https://www.wetteronline.de )

Wetter aktuell Altusried

Aktuelles Wetter: Kempten (705m)

6-stündlich | Neueste Meldungen
Ortszeit Temperatur Wetter
So, 19.09. 8:00 6.8° C bewölkt
So, 19.09. 2:00 7.5° C wolkenlos
Sa, 18.09. 20:00 13.1° C wolkenlos
Sa, 18.09. 14:00 19.6° C leicht bewölkt
Sa, 18.09. 8:00 9.5° C bedeckt
Sa, 18.09. 2:00 9.7° C bewölkt
Fr, 17.09. 20:00 14.0° C bedeckt
Fr, 17.09. 14:00 16.5° C bedeckt
Ortszeit Temperatur Wetter
So, 19.09. 9:00 9.6° C fast wolkenlos
So, 19.09. 8:50 9.6° C fast wolkenlos
So, 19.09. 8:40 8.7° C wolkenlos
So, 19.09. 8:30 8.0° C leicht bewölkt
So, 19.09. 8:20 8.0° C leicht bewölkt
So, 19.09. 8:10 7.5° C wolkig
So, 19.09. 8:00 6.8° C bewölkt
So, 19.09. 7:30 6.5° C Nebel
So, 19.09. 7:00 6.5° C Nebel
So, 19.09. 6:30 6.1° C wolkig
So, 19.09. 6:00 6.1° C wolkig
Ortszeit Relative Feuchte Sichtweite
So, 19.09. 8:00 99% 1.6 km
So, 19.09. 2:00 96% 16 km
Sa, 18.09. 20:00 84% 40 km
Sa, 18.09. 14:00 55% 50 km
Sa, 18.09. 8:00 97% 16 km
Sa, 18.09. 2:00 96% 13 km
Fr, 17.09. 20:00 79% 40 km
Fr, 17.09. 14:00 63% 65 km
Ortszeit Relative Feuchte Sichtweite
So, 19.09. 9:00 93% 29 km
So, 19.09. 8:50 93% -
So, 19.09. 8:40 94% -
So, 19.09. 8:30 96% 11 km
So, 19.09. 8:20 96% -
So, 19.09. 8:10 97% -
So, 19.09. 8:00 99% 1.6 km
So, 19.09. 7:30 100% 0.2 km
So, 19.09. 7:00 100% 0.2 km
So, 19.09. 6:30 97% 8 km
So, 19.09. 6:00 98% 3.4 km
Ortszeit Niederschlagsmenge Niederschlagsart
So, 19.09. 8:00 0.0 l/m2 in 12 Std. -
So, 19.09. 2:00 0.0 l/m2 in 6 Std. -
Sa, 18.09. 20:00 0.0 l/m2 in 12 Std. -
Sa, 18.09. 14:00 0.0 l/m2 in 6 Std. -
Sa, 18.09. 8:00 0.0 l/m2 in 12 Std. -
Sa, 18.09. 2:00 0.0 l/m2 in 6 Std. -
Fr, 17.09. 20:00 0.0 l/m2 in 12 Std. -
Fr, 17.09. 14:00 0.0 l/m2 in 6 Std. -
Ortszeit Niederschlagsmenge Niederschlagsart
So, 19.09. 9:00 0.0 l/m2 in 1 Std. -
So, 19.09. 8:50 keine Meldung -
So, 19.09. 8:40 keine Meldung -
So, 19.09. 8:30 0.0 l/m2 in 1 Std. -
So, 19.09. 8:20 keine Meldung -
So, 19.09. 8:10 keine Meldung -
So, 19.09. 8:00 0.0 l/m2 in 1 Std. -
So, 19.09. 7:30 0.0 l/m2 in 1 Std. -
So, 19.09. 7:00 0.0 l/m2 in 1 Std. -
So, 19.09. 6:30 0.0 l/m2 in 1 Std. -
So, 19.09. 6:00 0.0 l/m2 in 1 Std. -
Ortszeit Stärke Spitze Richtung
km/h Bft. km/h Grad Sektor
So, 19.09. 8:00 2 1 9 100° O
So, 19.09. 2:00 4 1 11 130° SO
Sa, 18.09. 20:00 4 1 18 50° NO
Sa, 18.09. 14:00 4 1 22 20° N
Sa, 18.09. 8:00 0 0 7 - -
Sa, 18.09. 2:00 4 1 11 100° O
Fr, 17.09. 20:00 4 1 18 70° O
Fr, 17.09. 14:00 4 1 18 110° O
Ortszeit Stärke Spitze Richtung
km/h Bft. km/h Grad Sektor
So, 19.09. 9:00 4 1 4 200° S
So, 19.09. 8:50 4 1 - 200° S
So, 19.09. 8:40 2 1 - 180° S
So, 19.09. 8:30 2 1 4 140° SO
So, 19.09. 8:20 2 1 - 140° SO
So, 19.09. 8:10 2 1 - 120° SO
So, 19.09. 8:00 2 1 6 100° O
So, 19.09. 7:30 4 1 4 120° SO
So, 19.09. 7:00 4 1 7 150° SO
So, 19.09. 6:30 4 1 7 130° SO
So, 19.09. 6:00 4 1 7 100° O
Ortszeit Untergrenze Bedeckung Gattung
total tief tief mittel hoch
So, 19.09. 8:00 <30 m 8/8 0/8 - - -
So, 19.09. 2:00 - 0/8 0/8 - - -
Sa, 18.09. 20:00 - 0/8 0/8 - - -
Sa, 18.09. 14:00 1050 m 2/8 2/8 - - -
Sa, 18.09. 8:00 630 m 8/8 8/8 - - -
Sa, 18.09. 2:00 1260 m 7/8 7/8 - - -
Fr, 17.09. 20:00 870 m 8/8 8/8 - - -
Fr, 17.09. 14:00 870 m 8/8 8/8 - - -
Ortszeit Bedeckungsgrad in Achtel und Wolkenuntergrenze
So, 19.09. 9:00 2(9000m)
So, 19.09. 8:50 2(9000m)
So, 19.09. 8:40 keine Wolken
So, 19.09. 8:30 1(<30m) 4(10500m)
So, 19.09. 8:20 1(<30m) 4(10500m)
So, 19.09. 8:10 2(<30m) 7(10500m)
So, 19.09. 8:00 6(<30m) 8(10500m)
So, 19.09. 7:30 8(<30m)
So, 19.09. 7:00 8(<30m)
So, 19.09. 6:30 6(<30m) 6(9000m)
So, 19.09. 6:00 8(9000m) 6(9000m)
Ortszeit Luftdruck NN (hPa) Tendenz (hPa in 3 Std.)
So, 19.09. 8:00 1014 - 0,2
So, 19.09. 2:00 1016 - 0,8
Sa, 18.09. 20:00 1015 0,0
Sa, 18.09. 14:00 1014 - 0,6
Sa, 18.09. 8:00 1018 + 0,7
Sa, 18.09. 2:00 1017 - 0,1
Fr, 17.09. 20:00 1015 + 0,3
Fr, 17.09. 14:00 1015 - 1,0
Ortszeit Luftdruck NN (hPa) Tendenz (hPa in 3 Std.)
So, 19.09. 9:00 1013 0,0
So, 19.09. 8:50 1013 keine Meldung
So, 19.09. 8:40 1013 keine Meldung
So, 19.09. 8:30 1014 - 0,1
So, 19.09. 8:20 1014 keine Meldung
So, 19.09. 8:10 1014 keine Meldung
So, 19.09. 8:00 1014 - 0,2
So, 19.09. 7:30 1014 - 0,6
So, 19.09. 7:00 1014 - 0,9
So, 19.09. 6:30 1014 - 1,4
So, 19.09. 6:00 1014 - 1,6
Ortszeit Schneehöhe (cm)
So, 19.09. 8:00 0
So, 19.09. 2:00 0
Sa, 18.09. 20:00 0
Sa, 18.09. 14:00 0
Sa, 18.09. 8:00 0
Sa, 18.09. 2:00 0
Fr, 17.09. 20:00 0
Fr, 17.09. 14:00 0
Ortszeit Schneehöhe (cm)
So, 19.09. 9:00 0
So, 19.09. 8:50 0
So, 19.09. 8:40 0
So, 19.09. 8:30 0
So, 19.09. 8:20 0
So, 19.09. 8:10 0
So, 19.09. 8:00 0
So, 19.09. 7:30 0
So, 19.09. 7:00 0
So, 19.09. 6:30 0
So, 19.09. 6:00 0
Link zu dieser Seite / Seite empfehlen

Das Wetter in ...